Time;durP1;ratioP1;P1;durP2;ratioP2;P2;SDS_P1;SDS_P2;PMS_P1;PMS_P2;Temp;Humidity;BMP_temperature;BMP_pressure;BME280_temperature;BME280_humidity;BME280_pressure;Samples;Min_cycle;Max_cycle;Signal;HPM_P1;HPM_P2
2021/03/30 01:28:28;;;;;;;9.95;5.28;;;;;;;4.31;53.68;98509.34;1761889;79;21176;-84
2021/03/30 01:41:36;;;;;;;11.22;6.22;;;;;;;4.31;54.06;98511.95;1795145;76;21152;-83
2021/03/30 01:48:24;;;;;;;16.02;6.95;;;;;;;4.31;54.46;98513.25;1727923;79;21239;31
2021/03/30 02:18:44;;;;;;;13.95;6.75;;;;;;;4.22;55.10;98496.12;1575448;88;21311;-82
2021/03/30 02:45:08;;;;;;;12.80;7.45;;;;;;;4.19;55.63;98492.29;1520839;90;21517;31
2021/03/30 03:03:27;;;;;;;12.18;6.97;;;;;;;4.12;55.64;98476.44;1570317;88;21368;-85
2021/03/30 03:27:12;;;;;;;12.07;6.85;;;;;;;3.70;57.13;98480.33;1670182;83;21203;-83
2021/03/30 04:33:48;;;;;;;13.20;7.30;;;;;;;4.18;57.85;98511.46;1650115;81;21148;31
2021/03/30 05:00:55;;;;;;;28.92;14.10;;;;;;;4.95;57.40;98501.98;1711615;83;21160;-82
2021/03/30 05:03:42;;;;;;;30.92;14.80;;;;;;;5.07;57.17;98512.45;1706718;83;21875;-82
2021/03/30 05:06:59;;;;;;;23.98;12.23;;;;;;;5.16;57.10;98518.22;1687257;82;21228;-82
2021/03/30 05:09:26;;;;;;;28.70;14.53;;;;;;;5.27;56.49;98520.91;1693519;84;21244;-85
2021/03/30 05:11:53;;;;;;;28.57;12.28;;;;;;;5.32;56.35;98516.36;1694220;84;21176;-83
2021/03/30 05:14:21;;;;;;;28.57;11.00;;;;;;;5.40;55.96;98526.08;1666692;84;21340;-84
2021/03/30 05:16:48;;;;;;;31.77;10.93;;;;;;;5.41;55.87;98530.41;1666863;84;21162;-86
2021/03/30 05:19:16;;;;;;;24.80;11.78;;;;;;;5.37;55.78;98531.44;1664386;86;21316;-81
2021/03/30 05:21:43;;;;;;;27.37;13.10;;;;;;;5.31;56.03;98532.52;1664152;86;21235;-81
2021/03/30 05:24:11;;;;;;;30.57;12.40;;;;;;;5.40;56.05;98533.09;1661615;86;21219;-84
2021/03/30 05:27:38;;;;;;;31.52;13.55;;;;;;;5.50;56.01;98533.15;1706444;80;21305;-81
2021/03/30 05:34:34;;;;;;;35.90;13.62;;;;;;;5.61;55.53;98528.35;1737829;80;21254;-82
2021/03/30 05:37:48;;;;;;;22.22;12.60;;;;;;;5.63;55.75;98522.61;1740763;79;21131;-83
2021/03/30 05:40:20;;;;;;;20.43;10.08;;;;;;;5.81;55.61;98529.37;1733715;80;21143;-84
2021/03/30 05:43:04;;;;;;;28.77;12.93;;;;;;;5.89;55.28;98529.92;1668533;84;21147;-83
2021/03/30 05:45:33;;;;;;;27.05;11.97;;;;;;;5.86;55.25;98532.68;1676593;83;21555;-82
2021/03/30 05:48:00;;;;;;;28.75;13.15;;;;;;;5.84;55.34;98533.19;1693062;82;21158;-85
2021/03/30 05:50:45;;;;;;;31.60;14.43;;;;;;;5.90;55.33;98536.87;1731185;80;21175;-84
2021/03/30 05:53:42;;;;;;;28.00;13.00;;;;;;;5.99;55.29;98532.19;1721620;82;21174;-87
2021/03/30 05:56:10;;;;;;;27.62;13.90;;;;;;;5.99;55.05;98526.95;1722238;81;21380;-86
2021/03/30 05:59:32;;;;;;;22.10;12.98;;;;;;;6.04;55.12;98532.44;1697151;81;21140;-86
2021/03/30 06:02:57;;;;;;;31.70;14.07;;;;;;;6.22;54.99;98534.81;1695070;82;21156;-82
2021/03/30 06:05:25;;;;;;;27.37;13.85;;;;;;;6.36;54.69;98536.00;1701100;82;21661;-86
2021/03/30 06:07:59;;;;;;;30.40;14.95;;;;;;;6.59;54.61;98542.93;1706629;82;21224;-89
2021/03/30 06:11:30;;;;;;;31.93;14.45;;;;;;;7.00;54.02;98544.77;1792176;79;27352;-86
2021/03/30 06:14:46;;;;;;;28.65;14.58;;;;;;;7.13;52.53;98539.38;1760465;80;21579;-86
2021/03/30 06:17:20;;;;;;;26.85;14.07;;;;;;;7.30;53.20;98539.09;1754611;80;21129;-85
2021/03/30 06:20:07;;;;;;;32.45;14.15;;;;;;;7.62;52.59;98547.31;1726884;81;21159;-86
2021/03/30 06:22:58;;;;;;;32.95;14.10;;;;;;;7.93;52.22;98541.98;1753347;81;21567;-85
2021/03/30 06:25:50;;;;;;;26.35;12.68;;;;;;;8.35;51.94;98543.49;1739596;80;21169;-91
2021/03/30 06:28:29;;;;;;;26.30;12.23;;;;;;;8.96;50.99;98544.03;1750326;80;21142;-89
2021/03/30 06:31:16;;;;;;;24.10;12.40;;;;;;;9.65;49.71;98536.14;1734394;82;21155;-88
2021/03/30 06:33:57;;;;;;;24.70;12.45;;;;;;;9.99;50.37;98540.88;1743310;82;21179;-87
2021/03/30 06:36:32;;;;;;;29.20;15.78;;;;;;;10.10;48.37;98537.20;1724677;82;21153;-90
2021/03/30 06:39:07;;;;;;;35.92;14.60;;;;;;;10.24;47.80;98542.15;1724433;82;21212;-88
2021/03/30 06:41:44;;;;;;;35.33;17.12;;;;;;;10.23;45.07;98537.81;1734779;82;21163;-90
2021/03/30 06:44:27;;;;;;;31.23;18.15;;;;;;;10.26;46.67;98533.21;1744556;82;21606;-89
2021/03/30 06:47:01;;;;;;;22.98;14.53;;;;;;;10.28;45.84;98541.89;1700859;82;21207;-89
2021/03/30 06:50:04;;;;;;;26.35;14.47;;;;;;;10.22;44.10;98545.33;1802565;77;24852;-89
2021/03/30 06:52:35;;;;;;;31.05;16.67;;;;;;;9.92;44.94;98548.75;1800578;78;21668;-88
2021/03/30 06:55:10;;;;;;;27.50;14.13;;;;;;;9.83;44.96;98555.34;1800821;78;21166;-89
2021/03/30 06:57:54;;;;;;;24.92;16.62;;;;;;;9.34;45.27;98552.22;1772717;80;21583;-90
2021/03/30 07:03:18;;;;;;;25.75;13.55;;;;;;;9.19;45.90;98553.39;1789862;80;21132;-91
2021/03/30 07:05:56;;;;;;;47.53;19.12;;;;;;;9.19;45.27;98556.49;1795747;80;21137;-90
2021/03/30 07:08:23;;;;;;;41.90;17.70;;;;;;;8.90;45.99;98549.62;1796631;78;21939;-87
2021/03/30 07:10:54;;;;;;;40.28;18.92;;;;;;;9.04;46.30;98552.42;1800775;78;21189;-88
2021/03/30 07:13:26;;;;;;;27.85;15.80;;;;;;;9.24;46.44;98553.63;1800190;78;21166;-88
2021/03/30 07:16:16;;;;;;;31.80;15.80;;;;;;;9.43;45.75;98557.45;1796975;78;21131;-89
2021/03/30 07:18:52;;;;;;;30.10;15.63;;;;;;;9.52;45.87;98559.16;1798117;78;21162;-88
2021/03/30 07:21:44;;;;;;;25.80;14.93;;;;;;;9.75;45.48;98558.86;1800148;78;21391;-91
2021/03/30 07:24:15;;;;;;;34.43;16.05;;;;;;;9.96;44.55;98551.58;1800628;78;21538;-90
2021/03/30 07:26:57;;;;;;;31.45;17.57;;;;;;;10.00;44.37;98551.80;1801492;78;21566;-84
2021/03/30 07:29:46;;;;;;;23.00;13.85;;;;;;;10.20;44.05;98553.33;1802900;77;24649;-87
2021/03/30 07:33:00;;;;;;;24.07;13.53;;;;;;;10.50;44.30;98559.63;1795877;78;21146;-89
2021/03/30 07:35:30;;;;;;;20.97;12.75;;;;;;;10.63;42.40;98550.09;1749588;81;21198;-89
2021/03/30 07:38:13;;;;;;;23.05;13.53;;;;;;;10.82;42.41;98553.82;1792843;78;21139;-87
2021/03/30 07:40:42;;;;;;;23.45;12.03;;;;;;;10.84;41.35;98550.63;1799247;78;21568;-88
2021/03/30 07:43:26;;;;;;;26.12;12.95;;;;;;;10.82;41.99;98559.09;1799524;78;21147;-83
2021/03/30 07:45:58;;;;;;;26.37;13.28;;;;;;;11.03;42.82;98550.42;1797213;78;21123;-85
2021/03/30 07:48:30;;;;;;;25.53;12.87;;;;;;;11.53;42.33;98550.95;1800211;78;21190;-87
2021/03/30 07:51:07;;;;;;;26.02;12.73;;;;;;;12.08;42.19;98549.81;1809426;78;21100;-83
2021/03/30 07:53:53;;;;;;;23.52;13.38;;;;;;;12.43;40.14;98547.19;1802183;78;21182;-88
2021/03/30 07:56:41;;;;;;;22.67;13.03;;;;;;;12.65;40.62;98554.56;1795653;80;21131;-87
2021/03/30 07:59:09;;;;;;;18.02;6.70;;;;;;;13.16;40.06;98550.33;1803935;78;21190;-86
2021/03/30 08:01:37;;;;;;;15.08;8.65;;;;;;;13.36;38.36;98551.64;1827018;78;21569;-87
2021/03/30 08:04:05;;;;;;;19.67;8.80;;;;;;;13.23;37.72;98543.66;1799737;78;21116;-86
2021/03/30 08:06:47;;;;;;;12.73;7.33;;;;;;;13.40;37.54;98543.86;1800841;79;21135;-87
2021/03/30 08:09:18;;;;;;;19.75;8.63;;;;;;;13.71;37.89;98539.92;1799004;79;21167;-86
2021/03/30 08:11:56;;;;;;;19.15;9.60;;;;;;;14.10;37.33;98533.24;1800771;79;21143;-89
2021/03/30 08:14:37;;;;;;;18.05;10.08;;;;;;;14.22;37.05;98531.50;1822042;78;21155;-90
2021/03/30 08:17:09;;;;;;;13.53;8.60;;;;;;;14.47;35.92;98529.23;1807669;78;21124;-89
2021/03/30 08:19:41;;;;;;;19.82;9.68;;;;;;;14.78;35.61;98521.66;1810498;78;21151;-87
2021/03/30 08:22:09;;;;;;;17.85;9.43;;;;;;;15.04;35.55;98521.98;1738345;81;21163;-89
2021/03/30 08:24:51;;;;;;;12.37;8.63;;;;;;;15.09;35.38;98514.50;1760741;81;21155;-89
2021/03/30 08:27:38;;;;;;;25.37;8.78;;;;;;;15.29;35.36;98515.65;1735927;82;21189;-88
2021/03/30 08:30:18;;;;;;;19.52;8.98;;;;;;;15.47;35.03;98510.70;1721608;83;21601;-89
2021/03/30 08:32:48;;;;;;;18.32;9.05;;;;;;;15.30;34.04;98509.38;1718314;83;21140;-89
2021/03/30 08:35:37;;;;;;;13.38;6.47;;;;;;;15.19;31.95;98509.34;1721673;83;21124;-87
2021/03/30 08:38:05;;;;;;;14.00;8.63;;;;;;;15.13;33.92;98506.19;1721684;83;21183;-87
2021/03/30 08:40:41;;;;;;;27.65;8.48;;;;;;;14.93;33.17;98513.52;1610531;89;21657;-87
2021/03/30 08:43:20;;;;;;;19.00;9.98;;;;;;;14.87;33.59;98505.53;1610688;89;21661;-90
2021/03/30 08:46:13;;;;;;;20.52;8.60;;;;;;;14.82;31.65;98504.56;1610436;89;21212;-89
2021/03/30 08:48:48;;;;;;;18.05;7.37;;;;;;;15.02;33.39;98513.28;1610508;89;21296;-91
2021/03/30 08:51:22;;;;;;;11.75;5.95;;;;;;;15.14;33.77;98504.39;1610284;89;21647;-87
2021/03/30 08:53:50;;;;;;;10.40;5.67;;;;;;;15.23;33.22;98505.48;1610678;89;21223;-87
2021/03/30 08:56:29;;;;;;;14.07;8.00;;;;;;;15.15;32.50;98506.09;1610387;89;21183;-89
2021/03/30 08:58:58;;;;;;;8.83;6.03;;;;;;;15.06;33.42;98506.80;1677301;83;21609;-91
2021/03/30 09:01:26;;;;;;;10.15;6.35;;;;;;;15.09;32.76;98512.71;1721111;83;21278;-89
2021/03/30 09:03:54;;;;;;;15.93;9.35;;;;;;;14.80;31.74;98505.15;1721122;83;21193;-90
2021/03/30 09:06:42;;;;;;;13.05;7.12;;;;;;;14.67;33.28;98503.90;1721018;83;22292;-90
2021/03/30 09:09:28;;;;;;;15.80;9.13;;;;;;;14.87;32.21;98502.02;1721037;83;21183;-90
2021/03/30 09:11:58;;;;;;;15.40;8.75;;;;;;;14.61;31.59;98496.38;1721029;83;21675;-90
2021/03/30 09:14:26;;;;;;;17.75;9.68;;;;;;;14.64;33.49;98504.58;1720890;83;21172;-91
2021/03/30 09:17:06;;;;;;;22.37;9.53;;;;;;;14.83;33.35;98501.41;1721384;83;21525;-89
2021/03/30 09:32:58;;;;;;;17.95;8.43;;;;;;;15.21;32.33;98488.34;1808421;78;24288;-80
2021/03/30 09:35:29;;;;;;;15.95;8.15;;;;;;;15.22;33.54;98487.38;1780897;81;21180;-81
2021/03/30 09:38:06;;;;;;;14.45;9.23;;;;;;;15.24;33.22;98486.78;1781287;80;21163;-82
2021/03/30 09:40:43;;;;;;;11.03;6.47;;;;;;;14.89;32.78;98488.16;1780852;81;21279;-81
2021/03/30 09:43:16;;;;;;;16.25;10.23;;;;;;;14.84;33.22;98484.52;1780085;81;21287;-81
2021/03/30 09:45:46;;;;;;;19.20;11.55;;;;;;;14.55;33.20;98484.87;1780769;80;21731;-80
2021/03/30 09:48:17;;;;;;;21.07;10.93;;;;;;;14.46;33.09;98482.91;1780097;81;21140;-80
2021/03/30 09:50:50;;;;;;;18.35;10.60;;;;;;;14.54;33.43;98479.20;1752900;81;21097;-80
2021/03/30 09:53:26;;;;;;;15.98;9.43;;;;;;;14.64;33.64;98481.53;1780353;81;21307;-81
2021/03/30 09:56:02;;;;;;;16.02;9.00;;;;;;;14.74;33.55;98476.89;1778657;81;21246;-79
2021/03/30 09:58:33;;;;;;;19.05;9.43;;;;;;;14.87;33.70;98469.70;1753204;81;21255;-80
2021/03/30 10:01:04;;;;;;;15.35;7.67;;;;;;;14.99;33.69;98464.76;1780589;81;21294;-82
2021/03/30 10:03:32;;;;;;;11.40;7.37;;;;;;;15.05;32.55;98467.42;1780642;81;21267;-81
2021/03/30 10:06:00;;;;;;;12.85;6.10;;;;;;;14.81;32.30;98460.86;1780736;81;21116;-81
2021/03/30 10:08:29;;;;;;;13.68;8.43;;;;;;;14.35;32.02;98465.98;1780449;81;21291;-82
2021/03/30 10:10:59;;;;;;;17.12;8.15;;;;;;;13.88;33.35;98459.69;1781068;81;21184;-81
2021/03/30 10:13:35;;;;;;;13.32;7.37;;;;;;;13.77;33.57;98470.24;1780779;80;21263;-81
2021/03/30 10:27:06;;;;;;;14.20;7.87;;;;;;;13.80;33.82;98460.73;1762475;81;24672;-92
2021/03/30 10:32:21;;;;;;;12.25;5.62;;;;;;;13.61;33.91;98462.04;1823998;77;24687;-93
2021/03/30 10:34:49;;;;;;;11.33;5.87;;;;;;;13.49;34.02;98460.28;1828561;78;21174;-94
2021/03/30 10:37:16;;;;;;;12.68;5.85;;;;;;;13.34;34.25;98464.33;1828171;78;21108;-93
2021/03/30 10:39:45;;;;;;;9.43;5.15;;;;;;;13.20;34.35;98466.61;1828368;78;21309;-93
2021/03/30 10:42:19;;;;;;;12.30;6.03;;;;;;;13.17;34.71;98462.02;1828166;78;21293;-92
2021/03/30 10:45:01;;;;;;;14.70;5.85;;;;;;;13.25;34.87;98457.89;1828559;78;21250;-94
2021/03/30 10:47:32;;;;;;;5.78;4.00;;;;;;;13.47;34.96;98458.21;1828044;78;21301;-90
2021/03/30 10:50:01;;;;;;;10.48;5.30;;;;;;;13.66;34.48;98456.41;1827934;78;21569;-92
2021/03/30 10:52:36;;;;;;;11.28;5.72;;;;;;;13.61;34.03;98450.61;1822027;78;21277;-90
2021/03/30 10:55:18;;;;;;;9.00;6.35;;;;;;;13.52;33.63;98453.42;1813551;78;21564;-90
2021/03/30 10:57:47;;;;;;;17.92;5.62;;;;;;;13.62;34.63;98450.49;1799161;78;21186;-86
2021/03/30 11:00:17;;;;;;;12.50;6.42;;;;;;;13.83;34.69;98446.77;1799419;78;21564;-87
2021/03/30 11:02:45;;;;;;;17.62;6.50;;;;;;;14.01;34.84;98441.95;1773440;80;21198;-88
2021/03/30 11:05:13;;;;;;;11.00;5.85;;;;;;;14.23;34.61;98431.56;1760183;81;21163;-84
2021/03/30 11:07:41;;;;;;;15.43;6.37;;;;;;;14.39;34.35;98430.78;1743062;81;21171;-85
2021/03/30 11:10:11;;;;;;;18.45;6.40;;;;;;;14.57;34.25;98427.23;1744748;81;21179;-85
2021/03/30 11:12:40;;;;;;;11.80;5.20;;;;;;;14.61;33.67;98419.89;1753238;81;21223;-85
2021/03/30 11:15:09;;;;;;;10.35;6.17;;;;;;;14.67;33.59;98416.79;1751834;81;21528;-84
2021/03/30 11:17:36;;;;;;;14.75;6.00;;;;;;;14.60;32.65;98411.09;1773183;81;21183;-85
2021/03/30 11:20:06;;;;;;;6.42;4.60;;;;;;;14.48;32.21;98413.34;1758885;81;21174;-85
2021/03/30 11:22:33;;;;;;;10.80;5.40;;;;;;;14.54;33.56;98408.89;1748097;81;21198;-85
2021/03/30 11:25:04;;;;;;;8.83;4.97;;;;;;;14.72;33.55;98405.83;1744263;81;21554;-84
2021/03/30 11:27:33;;;;;;;19.15;5.53;;;;;;;14.89;33.68;98402.75;1760694;81;21602;-86
2021/03/30 11:30:21;;;;;;;13.45;5.85;;;;;;;15.08;33.72;98400.81;1727096;81;21665;-85
2021/03/30 11:35:17;;;;;;;16.67;7.12;;;;;;;15.12;32.08;98390.80;1729354;82;21220;-86
2021/03/30 11:40:12;;;;;;;8.18;4.05;;;;;;;14.96;32.70;98397.31;1707777;83;21159;-84
2021/03/30 11:42:40;;;;;;;8.05;4.22;;;;;;;15.04;32.75;98387.90;1728122;82;21576;-85
2021/03/30 11:45:09;;;;;;;7.10;4.12;;;;;;;14.99;31.47;98386.44;1736809;82;21128;-85
2021/03/30 11:47:37;;;;;;;11.35;4.60;;;;;;;15.03;32.71;98386.20;1730280;82;21195;-87
2021/03/30 11:50:06;;;;;;;10.55;4.65;;;;;;;15.05;32.15;98387.77;1731302;82;21179;-85
2021/03/30 11:52:35;;;;;;;7.25;4.05;;;;;;;15.03;32.78;98376.45;1732258;82;21639;-85
2021/03/30 11:55:05;;;;;;;7.08;3.92;;;;;;;15.19;32.81;98380.55;1714548;82;21151;-85
2021/03/30 11:57:32;;;;;;;8.68;4.12;;;;;;;15.20;32.66;98364.48;1723443;82;22416;-84
2021/03/30 11:59:59;;;;;;;6.10;3.70;;;;;;;15.38;32.18;98377.26;1722150;82;21187;-84
2021/03/30 12:02:31;;;;;;;11.80;4.28;;;;;;;15.27;32.16;98369.66;1725049;82;21635;-85
2021/03/30 12:04:59;;;;;;;8.43;4.05;;;;;;;15.38;32.90;98371.48;1734825;82;21206;-83
2021/03/30 12:07:26;;;;;;;11.95;4.00;;;;;;;15.55;32.44;98366.12;1708094;82;21931;-83
2021/03/30 12:09:57;;;;;;;6.25;3.33;;;;;;;15.70;32.66;98354.73;1704925;82;21180;-86
2021/03/30 12:12:24;;;;;;;4.10;2.45;;;;;;;15.87;32.39;98360.54;1707360;84;21207;-84
2021/03/30 12:14:52;;;;;;;10.50;3.58;;;;;;;15.84;32.36;98362.11;1707605;84;21207;-82
2021/03/30 12:17:19;;;;;;;5.25;2.90;;;;;;;15.71;31.83;98356.92;1711756;82;21194;-83
2021/03/30 12:19:46;;;;;;;8.48;2.83;;;;;;;15.51;32.29;98351.41;1735201;82;21183;-82
2021/03/30 12:22:14;;;;;;;3.58;2.40;;;;;;;15.55;32.34;98358.64;1727091;82;21424;-80
2021/03/30 12:24:41;;;;;;;4.25;2.70;;;;;;;15.43;32.51;98346.70;1720476;82;21215;-80
2021/03/30 12:27:10;;;;;;;10.48;2.83;;;;;;;15.50;33.07;98336.93;1719141;82;21204;-85
2021/03/30 12:29:38;;;;;;;7.22;3.35;;;;;;;15.65;33.10;98326.38;1708081;82;21186;-81
2021/03/30 12:32:10;;;;;;;4.42;2.62;;;;;;;15.88;33.01;98331.63;1713662;82;21159;-81
2021/03/30 12:34:37;;;;;;;3.42;2.30;;;;;;;16.18;32.71;98326.92;1697348;84;21180;-84
2021/03/30 12:37:05;;;;;;;5.20;2.85;;;;;;;16.30;31.95;98330.36;1697623;84;21141;-84
2021/03/30 12:39:32;;;;;;;4.20;2.60;;;;;;;16.15;31.73;98331.16;1697740;84;21161;-85
2021/03/30 12:41:59;;;;;;;5.25;2.55;;;;;;;16.08;32.15;98339.30;1697760;84;21192;-83
2021/03/30 12:44:27;;;;;;;4.15;2.30;;;;;;;16.00;31.84;98331.95;1697286;84;21269;-85
2021/03/30 12:46:54;;;;;;;5.40;3.08;;;;;;;15.86;31.97;98322.95;1696929;84;21642;-84
2021/03/30 12:49:22;;;;;;;8.88;3.05;;;;;;;15.72;32.17;98320.91;1696767;84;21180;-80
2021/03/30 12:51:50;;;;;;;6.28;3.12;;;;;;;15.76;32.70;98321.02;1697237;84;21221;-84
2021/03/30 12:54:18;;;;;;;6.55;3.52;;;;;;;15.91;32.73;98316.26;1721401;83;21253;-84
2021/03/30 12:56:46;;;;;;;4.58;2.58;;;;;;;16.18;32.83;98314.09;1718883;83;21217;-84
2021/03/30 12:59:14;;;;;;;6.15;2.95;;;;;;;16.30;32.20;98321.52;1708910;82;21199;-85
2021/03/30 13:01:42;;;;;;;5.55;3.05;;;;;;;16.03;31.42;98318.88;1686430;85;21181;-86
2021/03/30 13:04:09;;;;;;;5.22;2.95;;;;;;;15.88;32.27;98308.56;1708873;84;21203;-86
2021/03/30 13:06:37;;;;;;;10.53;3.20;;;;;;;16.00;32.45;98307.19;1671848;85;21203;-83
2021/03/30 13:09:05;;;;;;;5.65;3.05;;;;;;;16.10;32.20;98305.41;1696908;84;21574;-82
2021/03/30 13:11:32;;;;;;;4.78;2.22;;;;;;;16.30;32.41;98301.56;1685203;84;21175;-84
2021/03/30 13:14:00;;;;;;;4.85;2.40;;;;;;;16.49;32.32;98293.70;1705240;84;21206;-84
2021/03/30 13:16:27;;;;;;;4.78;2.30;;;;;;;16.48;31.26;98303.16;1717602;83;21195;-83
2021/03/30 13:18:55;;;;;;;5.83;3.05;;;;;;;16.21;31.53;98300.05;1710374;83;21564;-85
2021/03/30 13:21:24;;;;;;;4.22;2.80;;;;;;;15.92;31.98;98291.36;1715546;83;21147;-81
2021/03/30 13:23:54;;;;;;;5.53;2.80;;;;;;;15.87;32.32;98288.25;1721160;83;21688;-85
2021/03/30 13:26:20;;;;;;;4.40;2.60;;;;;;;15.89;32.34;98288.98;1717315;83;21248;-87
2021/03/30 13:28:48;;;;;;;26.35;3.40;;;;;;;15.85;32.52;98290.69;1721167;83;21294;-84
2021/03/30 13:31:15;;;;;;;6.33;3.05;;;;;;;15.80;32.74;98292.84;1721469;80;21196;-85
2021/03/30 13:33:42;;;;;;;5.55;3.37;;;;;;;15.67;33.16;98289.02;1723750;83;21557;-84
2021/03/30 13:36:09;;;;;;;5.05;2.50;;;;;;;15.59;33.20;98287.84;1722961;83;21199;-83
2021/03/30 13:38:37;;;;;;;7.53;3.12;;;;;;;15.66;33.38;98289.52;1727627;83;21191;-83
2021/03/30 13:41:04;;;;;;;6.22;3.52;;;;;;;15.77;33.33;98283.31;1726936;83;21132;-82
2021/03/30 13:43:33;;;;;;;4.40;2.80;;;;;;;15.96;33.34;98289.28;1738023;82;21187;-84
2021/03/30 13:46:00;;;;;;;10.20;3.20;;;;;;;16.16;33.28;98288.96;1717108;83;21200;-85
2021/03/30 13:48:27;;;;;;;4.58;2.25;;;;;;;16.33;33.21;98284.02;1734167;82;21164;-85
2021/03/30 13:50:55;;;;;;;5.03;2.70;;;;;;;16.38;32.65;98283.98;1733562;82;21564;-86
2021/03/30 13:53:22;;;;;;;3.05;2.15;;;;;;;16.30;32.78;98285.60;1711847;83;21128;-86
2021/03/30 13:55:50;;;;;;;4.87;2.52;;;;;;;16.35;32.88;98282.91;1736598;82;21148;-87
2021/03/30 13:58:17;;;;;;;6.47;2.58;;;;;;;16.37;32.93;98272.98;1724041;82;21122;-84
2021/03/30 14:00:44;;;;;;;5.37;2.50;;;;;;;16.52;33.01;98279.28;1749792;82;21610;-86
2021/03/30 14:03:12;;;;;;;14.15;2.55;;;;;;;16.50;32.11;98272.77;1705396;83;21164;-85
2021/03/30 14:05:39;;;;;;;5.45;2.22;;;;;;;16.36;31.93;98272.63;1715902;83;21177;-76
2021/03/30 14:08:07;;;;;;;5.42;2.87;;;;;;;16.05;32.13;98275.22;1723522;82;21150;-82
2021/03/30 14:10:34;;;;;;;3.70;2.27;;;;;;;15.89;32.72;98270.84;1709735;83;21570;-83
2021/03/30 14:13:08;;;;;;;4.83;3.02;;;;;;;15.86;32.24;98273.77;1735540;82;21160;-81
2021/03/30 14:15:41;;;;;;;6.67;2.92;;;;;;;15.72;32.38;98269.57;1718006;83;21132;-79
2021/03/30 14:18:24;;;;;;;5.42;2.58;;;;;;;15.57;32.59;98269.85;1731540;83;21188;-80
2021/03/30 14:20:49;;;;;;;5.28;3.05;;;;;;;15.50;32.94;98260.70;1717665;83;21152;-80
2021/03/30 14:23:29;;;;;;;5.28;3.10;;;;;;;15.58;33.14;98260.08;1735217;82;21875;-89
2021/03/30 14:26:02;;;;;;;7.12;3.30;;;;;;;15.65;33.04;98253.75;1719013;83;21155;-84
2021/03/30 14:28:31;;;;;;;6.08;3.40;;;;;;;15.58;32.59;98260.08;1708373;83;22352;-82
2021/03/30 14:31:00;;;;;;;8.53;3.75;;;;;;;15.39;33.04;98257.61;1733031;82;21165;-81
2021/03/30 14:33:27;;;;;;;13.60;4.45;;;;;;;15.36;33.33;98261.00;1690906;83;21229;-81
2021/03/30 14:35:54;;;;;;;6.33;3.47;;;;;;;15.40;33.53;98261.09;1751666;80;21205;-85
2021/03/30 14:38:22;;;;;;;6.28;3.12;;;;;;;15.48;33.66;98259.16;1775824;80;21171;-86
2021/03/30 14:40:51;;;;;;;5.42;3.10;;;;;;;15.52;33.16;98256.58;1776066;80;21128;-80
2021/03/30 14:43:26;;;;;;;11.45;5.08;;;;;;;15.43;33.26;98257.70;1780021;80;21194;-90
2021/03/30 14:46:31;;;;;;;5.35;3.00;;;;;;;15.27;33.40;98254.11;1778963;80;21167;-81
2021/03/30 14:54:04;;;;;;;5.83;2.92;;;;;;;15.23;33.19;98243.87;1768727;80;21578;-77
2021/03/30 14:56:48;;;;;;;8.33;3.23;;;;;;;15.09;33.49;98239.20;1759334;80;21171;-87
2021/03/30 14:59:19;;;;;;;4.55;2.70;;;;;;;15.05;33.75;98237.75;1782842;80;21199;-86
2021/03/30 15:04:45;;;;;;;8.08;4.25;;;;;;;15.04;33.79;98241.88;1822535;77;24852;-85
2021/03/30 15:07:12;;;;;;;6.22;3.85;;;;;;;14.90;33.85;98239.83;1806245;78;21154;-80
2021/03/30 15:09:40;;;;;;;10.18;3.80;;;;;;;14.86;34.08;98237.53;1813324;78;21562;-84
2021/03/30 15:12:11;;;;;;;7.05;4.50;;;;;;;14.86;34.17;98234.42;1812697;78;21127;-89
2021/03/30 15:14:38;;;;;;;6.10;3.40;;;;;;;14.86;34.23;98238.40;1793456;78;22230;-87
2021/03/30 15:17:07;;;;;;;9.75;5.20;;;;;;;14.82;34.12;98236.48;1801329;78;21131;-83
2021/03/30 15:19:37;;;;;;;7.03;3.52;;;;;;;14.73;34.39;98239.00;1772928;80;21635;-76
2021/03/30 15:22:06;;;;;;;4.30;3.02;;;;;;;14.66;34.41;98232.86;1751116;81;21572;-80
2021/03/30 15:24:36;;;;;;;8.78;4.47;;;;;;;14.57;34.58;98226.92;1762514;80;21147;-84
2021/03/30 15:27:06;;;;;;;5.83;3.22;;;;;;;14.47;34.84;98235.23;1769694;79;21195;-83
2021/03/30 15:29:34;;;;;;;8.40;4.08;;;;;;;14.41;34.89;98238.38;1769134;79;21189;-82
2021/03/30 15:32:03;;;;;;;8.88;3.67;;;;;;;14.28;35.13;98241.98;1749735;81;21152;-81
2021/03/30 15:34:30;;;;;;;7.97;3.42;;;;;;;14.19;35.20;98230.30;1764473;80;21135;-81
2021/03/30 15:36:58;;;;;;;5.95;4.20;;;;;;;14.14;35.41;98236.91;1747883;80;21186;-80
2021/03/30 15:39:25;;;;;;;8.08;4.20;;;;;;;14.05;35.43;98234.47;1748085;81;21154;-84
2021/03/30 15:41:54;;;;;;;8.55;4.72;;;;;;;13.94;35.61;98236.62;1750323;81;21623;-80
2021/03/30 15:44:30;;;;;;;7.35;4.03;;;;;;;13.87;35.85;98242.03;1756200;81;21480;-82
2021/03/30 15:49:42;;;;;;;5.58;3.67;;;;;;;13.79;36.23;98237.77;1762641;81;21644;-82
2021/03/30 15:52:10;;;;;;;7.60;4.40;;;;;;;13.74;36.27;98237.64;1747735;81;21273;-85
2021/03/30 15:57:23;;;;;;;6.72;3.70;;;;;;;13.74;36.50;98238.11;1777659;79;24805;-85
2021/03/30 15:59:50;;;;;;;7.75;3.33;;;;;;;13.68;36.53;98235.47;1723783;82;21199;-79
2021/03/30 16:02:18;;;;;;;5.45;3.27;;;;;;;13.66;36.63;98237.84;1724440;82;21131;-85
2021/03/30 16:04:48;;;;;;;14.07;4.42;;;;;;;13.61;36.76;98228.91;1727272;82;21197;-86
2021/03/30 16:07:17;;;;;;;9.90;3.95;;;;;;;13.55;36.97;98230.22;1735832;81;21108;-85
2021/03/30 16:09:46;;;;;;;8.03;3.55;;;;;;;13.52;36.99;98233.58;1733403;82;21113;-82
2021/03/30 16:12:15;;;;;;;6.72;3.20;;;;;;;13.46;37.13;98232.72;1724189;82;21159;-79
2021/03/30 16:14:43;;;;;;;6.45;3.90;;;;;;;13.41;37.13;98227.77;1748345;82;21165;-82
2021/03/30 16:17:12;;;;;;;8.50;2.90;;;;;;;13.37;37.27;98238.16;1702372;83;21170;-78
2021/03/30 16:19:41;;;;;;;9.08;3.52;;;;;;;13.32;37.55;98233.21;1698025;84;21619;-83
2021/03/30 16:22:13;;;;;;;8.10;4.25;;;;;;;13.28;37.60;98233.09;1712033;84;21187;-81
2021/03/30 16:24:40;;;;;;;5.87;3.50;;;;;;;13.23;37.65;98230.78;1697013;84;21159;-87
2021/03/30 16:27:08;;;;;;;7.72;4.17;;;;;;;13.18;37.93;98236.87;1671424;84;21624;-85
2021/03/30 16:29:38;;;;;;;10.05;4.37;;;;;;;13.15;38.12;98237.58;1681252;85;21203;-86
2021/03/30 16:32:09;;;;;;;7.17;4.10;;;;;;;13.09;38.14;98235.75;1679499;85;21629;-83
2021/03/30 16:34:38;;;;;;;6.58;4.37;;;;;;;13.03;38.15;98234.88;1680418;84;21799;-88
2021/03/30 16:37:06;;;;;;;14.05;4.33;;;;;;;12.98;38.19;98233.03;1681407;85;21222;-86
2021/03/30 16:39:34;;;;;;;7.85;4.37;;;;;;;12.93;38.31;98235.17;1682514;85;21180;-87
2021/03/30 16:42:03;;;;;;;9.10;5.33;;;;;;;12.87;38.54;98243.53;1671623;85;21179;-83
2021/03/30 16:44:31;;;;;;;11.50;4.92;;;;;;;12.80;38.81;98241.83;1663510;85;21203;-83
2021/03/30 16:46:59;;;;;;;9.55;5.85;;;;;;;12.73;38.92;98245.84;1672777;85;21561;-82
2021/03/30 16:49:27;;;;;;;9.80;5.37;;;;;;;12.64;39.27;98242.06;1674451;85;21727;-83
2021/03/30 16:51:55;;;;;;;9.18;5.90;;;;;;;12.57;39.21;98244.28;1683221;85;21167;-85
2021/03/30 16:54:24;;;;;;;14.53;6.12;;;;;;;12.49;39.55;98242.66;1675823;85;21140;-82
2021/03/30 16:56:52;;;;;;;12.95;5.30;;;;;;;12.42;39.67;98243.55;1686425;84;21131;-81
2021/03/30 16:59:19;;;;;;;11.35;5.70;;;;;;;12.34;39.73;98245.89;1682743;84;21615;-86
2021/03/30 17:01:47;;;;;;;8.45;4.70;;;;;;;12.24;40.01;98238.22;1660299;84;21184;-89
2021/03/30 17:04:14;;;;;;;12.98;5.30;;;;;;;12.16;40.18;98236.96;1694524;84;21148;-87
2021/03/30 17:06:42;;;;;;;9.30;5.22;;;;;;;12.10;40.15;98247.09;1712702;84;21554;-83
2021/03/30 17:09:09;;;;;;;8.40;5.53;;;;;;;12.05;40.79;98250.05;1696249;84;21664;-82
2021/03/30 17:11:37;;;;;;;11.88;5.53;;;;;;;11.98;40.67;98254.07;1691342;84;21183;-87
2021/03/30 17:14:04;;;;;;;14.18;5.85;;;;;;;11.91;41.97;98255.41;1708395;84;21137;-88
2021/03/30 17:16:32;;;;;;;11.65;5.97;;;;;;;11.85;40.98;98251.38;1712094;84;21152;-80
2021/03/30 17:18:59;;;;;;;10.75;6.03;;;;;;;11.77;41.60;98258.48;1693984;84;21157;-81
2021/03/30 17:21:28;;;;;;;13.03;6.42;;;;;;;11.70;41.74;98250.61;1699021;84;21184;-88
2021/03/30 17:23:55;;;;;;;12.18;6.22;;;;;;;11.63;41.62;98253.29;1713745;84;21164;-87
2021/03/30 17:26:23;;;;;;;16.40;7.45;;;;;;;11.55;42.40;98249.34;1703359;84;21152;-79
2021/03/30 17:28:50;;;;;;;10.40;6.37;;;;;;;11.51;42.82;98247.86;1687615;84;21189;-82